createdAt,value
2022-11-25T00:02:15.308Z,11.78
2022-11-25T00:05:02.385Z,11.76
2022-11-25T00:07:52.100Z,11.74
2022-11-25T00:10:39.546Z,11.68
2022-11-25T00:13:26.253Z,11.64
2022-11-25T00:16:16.172Z,11.61
2022-11-25T00:19:04.604Z,11.55
2022-11-25T00:21:51.808Z,11.50
2022-11-25T00:24:38.527Z,11.40
2022-11-25T00:27:25.910Z,11.36
2022-11-25T00:30:13.565Z,11.31
2022-11-25T00:33:00.934Z,11.26
2022-11-25T00:35:48.975Z,11.19
2022-11-25T00:38:36.429Z,11.09
2022-11-25T00:41:41.925Z,11.06
2022-11-25T00:44:40.192Z,11.00
2022-11-25T00:47:29.538Z,10.92
2022-11-25T00:50:17.200Z,10.87
2022-11-25T00:53:05.423Z,10.79
2022-11-25T00:56:10.246Z,10.72
2022-11-25T00:58:57.543Z,10.67
2022-11-25T01:01:44.797Z,10.64
2022-11-25T01:04:31.673Z,10.59
2022-11-25T01:07:19.433Z,10.57
2022-11-25T01:10:09.238Z,10.54
2022-11-25T01:12:58.295Z,10.51
2022-11-25T01:15:45.100Z,10.48
2022-11-25T01:18:33.198Z,10.43
2022-11-25T01:21:22.096Z,10.38
2022-11-25T01:24:09.842Z,10.33
2022-11-25T01:26:58.168Z,10.31
2022-11-25T01:29:45.583Z,10.25
2022-11-25T01:32:33.334Z,10.19
2022-11-25T01:35:20.723Z,10.14
2022-11-25T01:38:07.667Z,10.06
2022-11-25T01:40:55.040Z,10.01
2022-11-25T01:43:43.515Z,9.98
2022-11-25T01:46:37.233Z,9.95
2022-11-25T01:49:30.284Z,9.91
2022-11-25T01:52:21.666Z,9.88
2022-11-25T01:55:13.942Z,9.84
2022-11-25T01:58:07.075Z,9.76
2022-11-25T02:00:55.633Z,9.72
2022-11-25T02:03:46.204Z,9.69
2022-11-25T02:06:39.976Z,9.66
2022-11-25T02:09:28.589Z,9.63
2022-11-25T02:12:17.993Z,9.61
2022-11-25T02:15:06.837Z,9.58
2022-11-25T02:17:55.707Z,9.56
2022-11-25T02:20:43.327Z,9.52
2022-11-25T02:23:41.074Z,9.50
2022-11-25T02:26:30.773Z,9.47
2022-11-25T02:29:17.420Z,9.46
2022-11-25T02:32:05.319Z,9.42
2022-11-25T02:34:52.302Z,9.41
2022-11-25T02:37:39.446Z,9.42
2022-11-25T02:40:28.647Z,9.40
2022-11-25T02:43:18.022Z,9.40
2022-11-25T02:46:07.691Z,9.38
2022-11-25T02:49:12.220Z,9.37
2022-11-25T02:52:00.554Z,9.35
2022-11-25T02:54:49.366Z,9.31
2022-11-25T02:57:36.321Z,9.30
2022-11-25T03:00:24.820Z,9.29
2022-11-25T03:03:12.497Z,9.24
2022-11-25T03:05:59.738Z,9.18
2022-11-25T03:08:46.676Z,9.18
2022-11-25T03:11:51.469Z,9.15
2022-11-25T03:14:39.426Z,9.14
2022-11-25T03:17:28.700Z,9.12
2022-11-25T03:20:16.195Z,9.10
2022-11-25T03:23:03.526Z,9.11
2022-11-25T03:25:50.829Z,9.11
2022-11-25T03:28:37.947Z,9.10
2022-11-25T03:31:24.899Z,9.08
2022-11-25T03:34:13.465Z,9.04
2022-11-25T03:37:00.812Z,9.00
2022-11-25T03:39:48.517Z,8.98
2022-11-25T03:42:35.835Z,8.93
2022-11-25T03:45:23.220Z,8.90
2022-11-25T03:48:10.178Z,8.88
2022-11-25T03:50:59.132Z,8.81
2022-11-25T03:53:47.253Z,8.76
2022-11-25T03:56:34.988Z,8.69
2022-11-25T03:59:22.014Z,8.66
2022-11-25T04:02:10.762Z,8.64
2022-11-25T04:04:58.159Z,8.60
2022-11-25T04:07:46.420Z,8.62
2022-11-25T04:10:33.842Z,8.63
2022-11-25T04:13:19.772Z,8.64
2022-11-25T04:16:06.912Z,8.66
2022-11-25T04:18:53.671Z,8.65
2022-11-25T04:21:41.126Z,8.63
2022-11-25T04:24:29.752Z,8.58
2022-11-25T04:27:20.542Z,8.57
2022-11-25T04:30:10.447Z,8.57
2022-11-25T04:32:58.799Z,8.58
2022-11-25T04:35:46.201Z,8.57
2022-11-25T04:38:33.517Z,8.58
2022-11-25T04:41:22.780Z,8.56
2022-11-25T04:44:10.075Z,8.53
2022-11-25T04:46:57.771Z,8.54
2022-11-25T04:49:45.211Z,8.51
2022-11-25T04:52:35.302Z,8.48
2022-11-25T04:55:30.559Z,8.44
2022-11-25T04:58:40.041Z,8.44
2022-11-25T05:01:27.021Z,8.41
2022-11-25T05:04:14.973Z,8.37
2022-11-25T05:07:02.391Z,8.33
2022-11-25T05:09:49.610Z,8.32
2022-11-25T05:12:37.541Z,8.34
2022-11-25T05:15:26.173Z,8.28
2022-11-25T05:18:13.499Z,8.30
2022-11-25T05:21:03.347Z,8.31
2022-11-25T05:23:55.673Z,8.34
2022-11-25T05:26:42.888Z,8.30
2022-11-25T05:29:29.826Z,8.28
2022-11-25T05:32:18.482Z,8.31
2022-11-25T05:35:06.245Z,8.26
2022-11-25T05:37:53.193Z,8.23
2022-11-25T05:40:41.140Z,8.26
2022-11-25T05:43:28.643Z,8.28
2022-11-25T05:46:16.611Z,8.26
2022-11-25T05:49:05.040Z,8.27
2022-11-25T05:51:52.753Z,8.26
2022-11-25T05:54:40.299Z,8.27
2022-11-25T05:57:29.168Z,8.25
2022-11-25T06:00:16.578Z,8.26
2022-11-25T06:03:04.116Z,8.28
2022-11-25T06:05:52.571Z,8.27
2022-11-25T06:08:40.308Z,8.25
2022-11-25T06:11:27.602Z,8.24
2022-11-25T06:14:14.672Z,8.23
2022-11-25T06:17:01.663Z,8.21
2022-11-25T06:19:48.966Z,8.20
2022-11-25T06:22:37.510Z,8.19
2022-11-25T06:25:24.751Z,8.16
2022-11-25T06:28:13.332Z,8.13
2022-11-25T06:31:06.599Z,8.14
2022-11-25T06:33:54.795Z,8.15
2022-11-25T06:36:42.027Z,8.15
2022-11-25T06:39:30.246Z,8.16
2022-11-25T06:42:17.562Z,8.14
2022-11-25T06:45:04.624Z,8.14
2022-11-25T06:47:51.828Z,8.12
2022-11-25T06:50:38.747Z,8.13
2022-11-25T06:53:26.483Z,8.16
2022-11-25T06:56:16.474Z,8.14
2022-11-25T06:59:04.598Z,8.15
2022-11-25T07:01:51.768Z,8.17
2022-11-25T07:04:40.167Z,8.20
2022-11-25T07:07:27.143Z,8.23
2022-11-25T07:10:14.659Z,8.26
2022-11-25T07:13:02.932Z,8.32
2022-11-25T07:15:50.377Z,8.37
2022-11-25T07:18:38.870Z,8.42
2022-11-25T07:21:26.276Z,8.48
2022-11-25T07:24:14.859Z,8.53
2022-11-25T07:27:02.131Z,8.61
2022-11-25T07:30:10.152Z,8.68
2022-11-25T07:32:58.411Z,8.69
2022-11-25T07:35:45.585Z,8.73
2022-11-25T07:38:33.010Z,8.81
2022-11-25T07:41:21.650Z,8.89
2022-11-25T07:44:09.397Z,8.98
2022-11-25T07:46:59.633Z,9.07
2022-11-25T07:49:46.953Z,9.07
2022-11-25T07:52:33.678Z,9.09
2022-11-25T07:55:20.930Z,9.13
2022-11-25T07:58:07.837Z,9.15
2022-11-25T08:00:55.171Z,9.19
2022-11-25T08:03:44.556Z,9.25
2022-11-25T08:06:31.374Z,9.37
2022-11-25T08:09:21.771Z,9.48
2022-11-25T08:12:09.246Z,9.52
2022-11-25T08:14:56.428Z,9.61
2022-11-25T08:17:43.219Z,9.73
2022-11-25T08:20:32.002Z,9.82
2022-11-25T08:23:19.120Z,9.87
2022-11-25T08:26:06.908Z,9.94
2022-11-25T08:28:53.915Z,10.01
2022-11-25T08:31:41.329Z,10.11
2022-11-25T08:34:27.889Z,10.22
2022-11-25T08:37:17.198Z,10.35
2022-11-25T08:40:04.849Z,10.51
2022-11-25T08:42:52.273Z,10.66
2022-11-25T08:45:40.538Z,10.80
2022-11-25T08:48:27.562Z,10.90
2022-11-25T08:51:16.521Z,10.96
2022-11-25T08:54:05.900Z,11.01
2022-11-25T08:56:52.995Z,11.07
2022-11-25T08:59:40.579Z,11.14
2022-11-25T09:02:27.761Z,11.18
2022-11-25T09:05:18.189Z,11.16
2022-11-25T09:08:05.736Z,11.28
2022-11-25T09:10:54.368Z,11.35
2022-11-25T09:13:41.115Z,11.43
2022-11-25T09:16:28.628Z,11.50
2022-11-25T09:19:15.703Z,11.59
2022-11-25T09:22:03.112Z,11.61
2022-11-25T09:24:50.349Z,11.72
2022-11-25T09:27:39.027Z,11.74
2022-11-25T09:30:26.809Z,11.84
2022-11-25T09:33:14.359Z,11.90
2022-11-25T09:36:01.654Z,11.90
2022-11-25T09:38:48.923Z,12.01
2022-11-25T09:42:15.362Z,12.06
2022-11-25T09:45:32.264Z,12.18
2022-11-25T09:48:42.221Z,12.26
2022-11-25T09:51:39.325Z,12.35
2022-11-25T09:54:30.971Z,12.43
2022-11-25T09:57:27.167Z,12.52
2022-11-25T10:00:19.117Z,12.57
2022-11-25T10:03:14.241Z,12.61
2022-11-25T10:06:06.219Z,12.72
2022-11-25T10:08:57.213Z,12.78
2022-11-25T10:11:51.495Z,12.85
2022-11-25T10:14:43.906Z,12.90
2022-11-25T10:17:39.299Z,12.93
2022-11-25T10:20:30.571Z,12.97
2022-11-25T10:23:27.772Z,13.09
2022-11-25T10:26:17.827Z,13.09
2022-11-25T10:29:21.227Z,13.18
2022-11-25T10:32:23.847Z,13.28
2022-11-25T10:35:22.027Z,13.35
2022-11-25T10:38:19.024Z,13.40
2022-11-25T10:41:07.112Z,13.45
2022-11-25T10:43:54.755Z,13.54
2022-11-25T10:47:13.045Z,13.60
2022-11-25T10:50:07.969Z,13.65
2022-11-25T10:53:00.951Z,13.74
2022-11-25T10:56:00.176Z,13.81
2022-11-25T10:58:47.147Z,13.89
2022-11-25T11:01:34.341Z,13.93
2022-11-25T11:04:21.592Z,14.02
2022-11-25T11:07:10.261Z,14.13
2022-11-25T11:10:17.634Z,14.21
2022-11-25T11:13:06.492Z,14.35
2022-11-25T11:15:54.798Z,14.46
2022-11-25T11:18:43.077Z,14.59
2022-11-25T11:21:32.542Z,14.65
2022-11-25T11:24:29.868Z,14.71
2022-11-25T11:27:24.153Z,14.80
2022-11-25T11:30:16.297Z,14.89
2022-11-25T11:33:05.862Z,15.00
2022-11-25T11:35:56.678Z,15.05
2022-11-25T11:38:50.790Z,15.12
2022-11-25T11:41:45.155Z,15.21
2022-11-25T11:44:41.482Z,15.29
2022-11-25T11:47:37.827Z,15.31
2022-11-25T11:50:30.444Z,15.35
2022-11-25T11:53:24.015Z,15.41
2022-11-25T11:56:34.803Z,15.34
2022-11-25T11:59:49.947Z,15.41
2022-11-25T12:02:50.951Z,15.46
2022-11-25T12:05:38.165Z,15.49
2022-11-25T12:08:32.040Z,15.59
2022-11-25T12:11:23.919Z,15.65
2022-11-25T12:14:16.082Z,15.69
2022-11-25T12:17:09.812Z,15.76
2022-11-25T12:20:03.069Z,15.84
2022-11-25T12:22:59.085Z,15.94
2022-11-25T12:25:48.670Z,16.02
2022-11-25T12:28:41.497Z,16.06
2022-11-25T12:31:32.563Z,16.28
2022-11-25T12:34:28.857Z,16.32
2022-11-25T12:37:23.934Z,16.42
2022-11-25T12:40:17.475Z,16.44
2022-11-25T12:43:16.750Z,16.50
2022-11-25T12:46:14.653Z,16.45
2022-11-25T12:49:03.000Z,16.43
2022-11-25T12:52:16.832Z,16.42
2022-11-25T12:55:12.444Z,16.33
2022-11-25T12:58:34.102Z,16.36
2022-11-25T13:01:57.011Z,16.30
2022-11-25T13:05:40.212Z,16.31
2022-11-25T13:08:52.684Z,16.25
2022-11-25T13:12:07.215Z,16.20
2022-11-25T13:15:19.453Z,16.16
2022-11-25T13:18:14.222Z,16.07
2022-11-25T13:21:08.660Z,16.03
2022-11-25T13:23:58.953Z,15.94
2022-11-25T13:26:50.806Z,16.00
2022-11-25T13:30:03.257Z,15.97
2022-11-25T13:32:51.997Z,16.01
2022-11-25T13:35:49.238Z,15.93
2022-11-25T13:38:39.048Z,15.94
2022-11-25T13:41:37.307Z,15.92
2022-11-25T13:44:32.238Z,15.91
2022-11-25T13:47:34.159Z,15.89
2022-11-25T13:50:28.957Z,15.90
2022-11-25T13:53:33.880Z,15.90
2022-11-25T13:56:30.776Z,15.90
2022-11-25T13:59:37.187Z,15.92
2022-11-25T14:02:49.576Z,15.95
2022-11-25T14:05:59.505Z,15.94
2022-11-25T14:08:56.474Z,15.92
2022-11-25T14:12:08.867Z,15.89
2022-11-25T14:15:12.741Z,15.88
2022-11-25T14:19:12.067Z,15.87
2022-11-25T14:22:07.736Z,15.85
2022-11-25T14:25:01.825Z,15.84
2022-11-25T14:28:03.466Z,15.77
2022-11-25T14:30:54.241Z,15.71
2022-11-25T14:33:49.750Z,15.56
2022-11-25T14:36:41.948Z,15.53
2022-11-25T14:39:35.230Z,15.38
2022-11-25T14:42:24.327Z,15.12
2022-11-25T14:45:24.207Z,15.17
2022-11-25T14:48:15.814Z,15.15
2022-11-25T14:51:06.884Z,15.09
2022-11-25T14:53:54.712Z,15.01
2022-11-25T14:56:41.915Z,14.94
2022-11-25T14:59:29.499Z,14.87
2022-11-25T15:02:30.638Z,14.75
2022-11-25T15:05:20.559Z,14.69
2022-11-25T15:08:12.283Z,14.40
2022-11-25T15:11:02.406Z,14.45
2022-11-25T15:13:55.826Z,14.43
2022-11-25T15:16:43.907Z,14.35
2022-11-25T15:19:36.077Z,14.31
2022-11-25T15:22:24.683Z,14.17
2022-11-25T15:25:15.962Z,14.21
2022-11-25T15:28:03.073Z,14.12
2022-11-25T15:30:57.728Z,14.10
2022-11-25T15:33:45.418Z,14.08
2022-11-25T15:36:33.773Z,14.05
2022-11-25T15:39:29.518Z,14.05
2022-11-25T15:42:20.680Z,13.82
2022-11-25T15:45:20.915Z,13.91
2022-11-25T15:48:08.214Z,13.90
2022-11-25T15:51:02.884Z,13.78
2022-11-25T15:53:55.532Z,13.85
2022-11-25T15:56:48.917Z,13.84
2022-11-25T15:59:51.259Z,13.84
2022-11-25T16:02:50.378Z,13.90
2022-11-25T16:05:38.654Z,13.89
2022-11-25T16:08:37.324Z,13.90
2022-11-25T16:11:29.255Z,13.85
2022-11-25T16:14:25.084Z,13.86
2022-11-25T16:17:13.664Z,13.85
2022-11-25T16:20:00.623Z,13.78
2022-11-25T16:22:48.264Z,13.81
2022-11-25T16:25:35.001Z,13.81
2022-11-25T16:28:25.371Z,13.84
2022-11-25T16:31:17.297Z,13.82
2022-11-25T16:34:14.383Z,13.76
2022-11-25T16:37:01.084Z,13.76
2022-11-25T16:39:48.009Z,13.73
2022-11-25T16:42:35.203Z,13.75
2022-11-25T16:45:26.077Z,13.72
2022-11-25T16:48:17.266Z,13.66
2022-11-25T16:51:06.267Z,13.65
2022-11-25T16:53:53.220Z,13.64
2022-11-25T16:56:42.899Z,13.64
2022-11-25T16:59:33.846Z,13.63
2022-11-25T17:02:23.463Z,13.63
2022-11-25T17:05:18.192Z,13.52
2022-11-25T17:08:05.847Z,13.54
2022-11-25T17:10:56.285Z,13.56
2022-11-25T17:13:45.746Z,13.58
2022-11-25T17:16:32.815Z,13.62
2022-11-25T17:19:21.254Z,13.59
2022-11-25T17:22:17.706Z,13.56
2022-11-25T17:25:05.148Z,13.60
2022-11-25T17:27:53.197Z,13.57
2022-11-25T17:30:40.731Z,13.49
2022-11-25T17:33:27.780Z,13.56
2022-11-25T17:36:16.266Z,13.53
2022-11-25T17:39:03.171Z,13.52
2022-11-25T17:41:51.833Z,13.44
2022-11-25T17:44:40.144Z,13.50
2022-11-25T17:47:27.587Z,13.54
2022-11-25T17:50:21.181Z,13.53
2022-11-25T17:53:10.355Z,13.51
2022-11-25T17:55:57.263Z,13.52
2022-11-25T17:58:44.514Z,13.55
2022-11-25T18:01:31.646Z,13.49
2022-11-25T18:04:23.438Z,13.50
2022-11-25T18:07:11.735Z,13.43
2022-11-25T18:10:00.229Z,13.47
2022-11-25T18:12:50.002Z,13.45
2022-11-25T18:15:38.539Z,13.43
2022-11-25T18:18:26.484Z,13.41
2022-11-25T18:21:14.131Z,13.43
2022-11-25T18:24:00.742Z,13.32
2022-11-25T18:26:53.014Z,13.35
2022-11-25T18:29:40.110Z,13.33
2022-11-25T18:32:27.883Z,13.43
2022-11-25T18:35:20.899Z,13.39
2022-11-25T18:38:08.307Z,13.40
2022-11-25T18:40:56.061Z,13.39
2022-11-25T18:43:45.124Z,13.31
2022-11-25T18:46:37.334Z,13.35
2022-11-25T18:49:24.860Z,13.27
2022-11-25T18:52:18.128Z,13.34
2022-11-25T18:55:07.148Z,13.36
2022-11-25T18:57:57.596Z,13.26
2022-11-25T19:00:53.311Z,13.31
2022-11-25T19:03:47.837Z,13.22
2022-11-25T19:06:36.468Z,13.31
2022-11-25T19:09:27.717Z,13.37
2022-11-25T19:12:20.666Z,13.35
2022-11-25T19:15:08.905Z,13.30
2022-11-25T19:18:00.577Z,13.33
2022-11-25T19:20:47.692Z,13.34
2022-11-25T19:23:36.133Z,13.37
2022-11-25T19:26:27.518Z,13.39
2022-11-25T19:29:19.832Z,13.31
2022-11-25T19:32:14.163Z,13.33
2022-11-25T19:35:06.415Z,13.38
2022-11-25T19:37:53.578Z,13.32
2022-11-25T19:40:41.360Z,13.27
2022-11-25T19:43:28.531Z,13.37
2022-11-25T19:46:29.707Z,13.41
2022-11-25T19:49:19.850Z,13.36
2022-11-25T19:52:16.258Z,13.35
2022-11-25T19:55:03.692Z,13.34
2022-11-25T19:57:51.853Z,13.37
2022-11-25T20:00:39.138Z,13.30
2022-11-25T20:03:30.021Z,13.33
2022-11-25T20:06:19.479Z,13.18
2022-11-25T20:09:12.572Z,13.27
2022-11-25T20:12:06.995Z,13.18
2022-11-25T20:14:58.480Z,13.17
2022-11-25T20:17:49.121Z,13.28
2022-11-25T20:20:39.035Z,13.31
2022-11-25T20:23:30.610Z,13.20
2022-11-25T20:26:27.638Z,13.19
2022-11-25T20:29:17.521Z,13.26
2022-11-25T20:32:19.848Z,13.21
2022-11-25T20:35:08.521Z,13.18
2022-11-25T20:37:58.108Z,13.16
2022-11-25T20:40:47.274Z,13.21
2022-11-25T20:43:39.056Z,13.19
2022-11-25T20:46:29.931Z,13.20
2022-11-25T20:49:22.933Z,13.13
2022-11-25T20:52:16.554Z,13.12
2022-11-25T20:55:15.226Z,13.03
2022-11-25T20:58:02.443Z,12.94
2022-11-25T21:00:57.068Z,13.01
2022-11-25T21:03:46.109Z,12.90
2022-11-25T21:06:40.759Z,12.88
2022-11-25T21:09:34.595Z,12.79
2022-11-25T21:12:21.784Z,12.71
2022-11-25T21:15:14.923Z,12.59
2022-11-25T21:18:03.357Z,12.47
2022-11-25T21:20:52.142Z,12.40
2022-11-25T21:23:39.636Z,12.29
2022-11-25T21:26:27.760Z,12.30
2022-11-25T21:29:17.057Z,12.20
2022-11-25T21:32:04.049Z,12.15
2022-11-25T21:34:52.977Z,11.95
2022-11-25T21:37:40.784Z,11.91
2022-11-25T21:40:34.351Z,11.80
2022-11-25T21:43:25.346Z,11.76
2022-11-25T21:46:14.939Z,11.73
2022-11-25T21:49:01.696Z,11.60
2022-11-25T21:51:50.292Z,11.59
2022-11-25T21:54:37.607Z,11.59
2022-11-25T21:57:28.863Z,11.57
2022-11-25T22:00:22.332Z,11.51
2022-11-25T22:03:16.045Z,11.49
2022-11-25T22:06:02.592Z,11.42
2022-11-25T22:08:51.953Z,11.42
2022-11-25T22:11:40.611Z,11.40
2022-11-25T22:14:34.601Z,11.33
2022-11-25T22:17:22.104Z,11.26
2022-11-25T22:20:24.672Z,11.25
2022-11-25T22:23:16.689Z,11.22
2022-11-25T22:26:06.003Z,11.17
2022-11-25T22:28:54.193Z,11.13
2022-11-25T22:31:41.683Z,11.04
2022-11-25T22:34:28.506Z,11.00
2022-11-25T22:37:17.846Z,11.04
2022-11-25T22:40:05.192Z,11.02
2022-11-25T22:42:56.310Z,11.11
2022-11-25T22:45:43.166Z,11.11
2022-11-25T22:48:33.088Z,11.14
2022-11-25T22:51:25.823Z,11.14
2022-11-25T22:54:13.138Z,11.12
2022-11-25T22:57:00.433Z,11.22
2022-11-25T22:59:48.996Z,11.16
2022-11-25T23:02:37.040Z,11.13
2022-11-25T23:05:31.939Z,11.23
2022-11-25T23:08:22.304Z,11.18
2022-11-25T23:11:17.048Z,11.24
2022-11-25T23:14:03.883Z,11.31
2022-11-25T23:16:52.808Z,11.31
2022-11-25T23:19:39.826Z,11.25
2022-11-25T23:22:27.031Z,11.32
2022-11-25T23:25:15.606Z,11.40
2022-11-25T23:28:02.897Z,11.42
2022-11-25T23:30:53.017Z,11.48
2022-11-25T23:33:44.223Z,11.41
2022-11-25T23:36:39.914Z,11.54
2022-11-25T23:39:28.045Z,11.59
2022-11-25T23:42:18.236Z,11.64
2022-11-25T23:45:07.915Z,11.60
2022-11-25T23:47:56.982Z,11.70
2022-11-25T23:50:45.896Z,11.75
2022-11-25T23:53:34.598Z,11.76
2022-11-25T23:56:22.058Z,11.83
2022-11-25T23:59:13.698Z,11.85
